Time;durP1;ratioP1;P1;durP2;ratioP2;P2;SDS_P1;SDS_P2;PMS_P1;PMS_P2;Temp;Humidity;BMP_temperature;BMP_pressure;BME280_temperature;BME280_humidity;BME280_pressure;Samples;Min_cycle;Max_cycle;Signal;HPM_P1;HPM_P2
2022/11/30 00:01:33;;;;;;;34.60;14.43;;;;;;;;;;5029216;28;20049;-77
2022/11/30 00:04:02;;;;;;;37.20;14.65;;;;;;;;;;5049485;28;20076;-78
2022/11/30 00:06:29;;;;;;;31.40;13.60;;;;;;;;;;5040517;28;20058;-79
2022/11/30 00:08:56;;;;;;;32.67;14.40;;;;;;;;;;5034119;28;20054;-80
2022/11/30 00:11:23;;;;;;;36.38;14.88;;;;;;;;;;5033971;28;20486;-83
2022/11/30 00:13:50;;;;;;;30.00;14.23;;;;;;;;;;5015711;28;20049;-81
2022/11/30 00:16:16;;;;;;;36.75;15.02;;;;;;;;;;5016267;28;20049;-81
2022/11/30 00:18:43;;;;;;;35.15;14.18;;;;;;;;;;5016754;28;20274;-79
2022/11/30 00:21:11;;;;;;;32.10;14.07;;;;;;;;;;5037240;28;20046;-80
2022/11/30 00:23:38;;;;;;;35.15;15.13;;;;;;;;;;5018846;28;20052;-80
2022/11/30 00:26:06;;;;;;;38.65;14.77;;;;;;;;;;5015595;28;20068;-79
2022/11/30 00:28:33;;;;;;;32.90;14.25;;;;;;;;;;5015960;28;20059;-79
2022/11/30 00:31:00;;;;;;;36.13;14.48;;;;;;;;;;5032536;28;20048;-80
2022/11/30 00:33:27;;;;;;;37.15;14.30;;;;;;;;;;5015819;28;20127;-81
2022/11/30 00:35:57;;;;;;;35.03;14.90;;;;;;;;;;5032056;28;20118;-80
2022/11/30 00:38:24;;;;;;;33.60;15.07;;;;;;;;;;5031462;28;20049;-80
2022/11/30 00:40:50;;;;;;;30.38;14.02;;;;;;;;;;5031579;28;20057;-81
2022/11/30 00:43:17;;;;;;;33.53;14.75;;;;;;;;;;5032013;28;20080;-82
2022/11/30 00:45:43;;;;;;;33.55;14.85;;;;;;;;;;5013750;28;20049;-80
2022/11/30 00:48:09;;;;;;;33.55;14.65;;;;;;;;;;5014209;28;20057;-81
2022/11/30 00:50:36;;;;;;;31.73;14.60;;;;;;;;;;5044013;28;20054;-80
2022/11/30 00:53:02;;;;;;;36.28;15.65;;;;;;;;;;5030936;28;20663;-79
2022/11/30 00:55:30;;;;;;;34.25;14.00;;;;;;;;;;5013923;28;20552;-79
2022/11/30 00:57:57;;;;;;;35.13;15.20;;;;;;;;;;5031388;28;20749;-79
2022/11/30 01:00:23;;;;;;;36.20;15.25;;;;;;;;;;5013670;28;20758;-80
2022/11/30 01:02:55;;;;;;;34.40;14.52;;;;;;;;;;5014248;28;20095;-80
2022/11/30 01:05:22;;;;;;;35.53;14.57;;;;;;;;;;5031167;28;20049;-79
2022/11/30 01:07:48;;;;;;;34.55;15.32;;;;;;;;;;5031738;28;20553;-81
2022/11/30 01:10:15;;;;;;;36.47;15.10;;;;;;;;;;5013692;28;20045;-82
2022/11/30 01:12:41;;;;;;;35.22;14.82;;;;;;;;;;5013832;28;20065;-79
2022/11/30 01:15:08;;;;;;;39.80;15.45;;;;;;;;;;5013862;28;20053;-80
2022/11/30 01:17:34;;;;;;;35.55;14.95;;;;;;;;;;5030857;28;20399;-80
2022/11/30 01:20:01;;;;;;;36.35;16.10;;;;;;;;;;5013554;28;20053;-80
2022/11/30 01:22:28;;;;;;;36.33;15.35;;;;;;;;;;5012972;28;20386;-80
2022/11/30 01:24:54;;;;;;;34.95;15.05;;;;;;;;;;5032002;28;20049;-79
2022/11/30 01:27:20;;;;;;;34.03;15.27;;;;;;;;;;5031255;28;20049;-80
2022/11/30 01:29:47;;;;;;;36.88;15.02;;;;;;;;;;5032268;28;20056;-81
2022/11/30 01:32:13;;;;;;;35.28;14.85;;;;;;;;;;5031254;28;20124;-77
2022/11/30 01:34:42;;;;;;;34.75;14.95;;;;;;;;;;5031785;28;20046;-81
2022/11/30 01:37:09;;;;;;;38.90;16.10;;;;;;;;;;5034282;28;20099;-79
2022/11/30 01:39:38;;;;;;;39.78;16.02;;;;;;;;;;5031039;28;20065;-81
2022/11/30 01:42:05;;;;;;;38.28;16.02;;;;;;;;;;5015201;28;20053;-80
2022/11/30 01:44:47;;;;;;;40.72;16.30;;;;;;;;;;5014878;28;20056;-82
2022/11/30 01:47:14;;;;;;;35.10;15.85;;;;;;;;;;5012613;28;20053;-81
2022/11/30 01:49:48;;;;;;;40.28;15.57;;;;;;;;;;5031350;28;20056;-82
2022/11/30 01:52:20;;;;;;;39.20;16.50;;;;;;;;;;5013575;28;20533;-82
2022/11/30 01:54:46;;;;;;;37.70;15.98;;;;;;;;;;5013871;28;20425;-80
2022/11/30 01:57:34;;;;;;;37.22;16.05;;;;;;;;;;5031281;28;20049;-82
2022/11/30 02:00:08;;;;;;;36.13;16.00;;;;;;;;;;5033934;28;20050;-82
2022/11/30 02:02:47;;;;;;;38.85;16.08;;;;;;;;;;5047555;28;20052;-78
2022/11/30 02:05:14;;;;;;;40.05;16.20;;;;;;;;;;5051525;28;20053;-78
2022/11/30 02:07:44;;;;;;;42.50;16.58;;;;;;;;;;5027324;28;20045;-82
2022/11/30 02:10:15;;;;;;;37.58;15.63;;;;;;;;;;5036797;28;20052;-80
2022/11/30 02:13:01;;;;;;;42.92;17.55;;;;;;;;;;5018634;28;20053;-81
2022/11/30 02:15:30;;;;;;;43.45;17.08;;;;;;;;;;5035887;28;20080;-80
2022/11/30 02:18:14;;;;;;;38.67;16.02;;;;;;;;;;5017719;28;20060;-78
2022/11/30 02:20:40;;;;;;;43.88;16.85;;;;;;;;;;5037045;28;20438;-81
2022/11/30 02:23:17;;;;;;;40.42;16.40;;;;;;;;;;5017755;28;20060;-83
2022/11/30 02:26:04;;;;;;;48.53;18.58;;;;;;;;;;5031293;28;20059;-81
2022/11/30 02:28:41;;;;;;;45.03;17.73;;;;;;;;;;5032896;28;20553;-81
2022/11/30 02:31:09;;;;;;;42.28;17.88;;;;;;;;;;5033973;28;20054;-79
2022/11/30 02:33:40;;;;;;;42.03;17.20;;;;;;;;;;5034557;28;20045;-81
2022/11/30 02:36:07;;;;;;;45.08;18.33;;;;;;;;;;5016430;28;20075;-80
2022/11/30 02:38:33;;;;;;;45.55;17.42;;;;;;;;;;5033948;28;20050;-81
2022/11/30 02:40:59;;;;;;;49.25;19.05;;;;;;;;;;5017675;28;20096;-81
2022/11/30 02:43:27;;;;;;;47.95;19.48;;;;;;;;;;5036344;28;20387;-79
2022/11/30 02:46:12;;;;;;;55.00;20.00;;;;;;;;;;5015385;28;20072;-79
2022/11/30 02:48:38;;;;;;;48.30;19.30;;;;;;;;;;5032258;28;20103;-80
2022/11/30 02:51:09;;;;;;;49.67;19.23;;;;;;;;;;5032661;28;20045;-79
2022/11/30 02:53:35;;;;;;;51.35;19.27;;;;;;;;;;5032816;28;20445;-80
2022/11/30 02:56:02;;;;;;;50.88;19.98;;;;;;;;;;5032970;28;20568;-79
2022/11/30 02:58:29;;;;;;;50.63;19.92;;;;;;;;;;5015706;28;20053;-79
2022/11/30 03:00:55;;;;;;;54.97;19.83;;;;;;;;;;5015925;28;20053;-80
2022/11/30 03:03:21;;;;;;;54.05;20.67;;;;;;;;;;5033274;28;20049;-81
2022/11/30 03:05:48;;;;;;;54.70;20.77;;;;;;;;;;5032778;28;20041;-80
2022/11/30 03:08:14;;;;;;;56.35;20.63;;;;;;;;;;5014896;28;20067;-80
2022/11/30 03:10:41;;;;;;;52.83;20.92;;;;;;;;;;5031310;28;20041;-81
2022/11/30 03:13:07;;;;;;;61.53;21.15;;;;;;;;;;5032281;28;20057;-80
2022/11/30 03:15:34;;;;;;;54.25;20.90;;;;;;;;;;5032433;28;20061;-80
2022/11/30 03:18:01;;;;;;;60.13;21.48;;;;;;;;;;5015450;28;20128;-80
2022/11/30 03:20:27;;;;;;;62.05;21.85;;;;;;;;;;5033208;28;20049;-80
2022/11/30 03:23:00;;;;;;;58.42;22.20;;;;;;;;;;5016033;28;20057;-81
2022/11/30 03:25:27;;;;;;;62.17;21.33;;;;;;;;;;5032888;28;20477;-80
2022/11/30 03:27:53;;;;;;;60.75;22.70;;;;;;;;;;5033000;28;20053;-81
2022/11/30 03:30:22;;;;;;;55.15;22.60;;;;;;;;;;5033076;28;20068;-83
2022/11/30 03:32:52;;;;;;;55.33;20.42;;;;;;;;;;5014869;28;20650;-79
2022/11/30 03:35:19;;;;;;;63.70;23.33;;;;;;;;;;5032366;28;20568;-80
2022/11/30 03:37:48;;;;;;;61.85;22.95;;;;;;;;;;5046031;28;20049;-79
2022/11/30 03:40:15;;;;;;;59.58;22.75;;;;;;;;;;5019763;28;20050;-79
2022/11/30 03:42:41;;;;;;;58.42;23.45;;;;;;;;;;5035763;28;20092;-79
2022/11/30 03:45:10;;;;;;;58.30;22.55;;;;;;;;;;5033941;28;20052;-78
2022/11/30 03:47:37;;;;;;;62.72;22.15;;;;;;;;;;5035036;28;20046;-80
2022/11/30 03:50:03;;;;;;;57.30;22.63;;;;;;;;;;5035245;28;20052;-81
2022/11/30 03:52:30;;;;;;;66.03;25.55;;;;;;;;;;5022183;28;20045;-79
2022/11/30 03:54:56;;;;;;;63.63;23.80;;;;;;;;;;5035223;28;20053;-80
2022/11/30 03:57:22;;;;;;;66.60;23.77;;;;;;;;;;5007072;28;20057;-79
2022/11/30 03:59:49;;;;;;;62.90;23.98;;;;;;;;;;5024927;28;20038;-78
2022/11/30 04:02:15;;;;;;;58.50;23.05;;;;;;;;;;5006607;28;20042;-79
2022/11/30 04:04:41;;;;;;;59.83;23.48;;;;;;;;;;5018771;28;20135;-76
2022/11/30 04:07:08;;;;;;;66.07;24.58;;;;;;;;;;5017788;28;20052;-79
2022/11/30 04:09:34;;;;;;;73.90;26.17;;;;;;;;;;5013323;28;20145;-82
2022/11/30 04:12:00;;;;;;;72.75;25.85;;;;;;;;;;5013760;28;20513;-80
2022/11/30 04:14:27;;;;;;;68.93;24.65;;;;;;;;;;5013258;28;20065;-82
2022/11/30 04:16:53;;;;;;;70.97;25.83;;;;;;;;;;5025573;28;20054;-81
2022/11/30 04:19:23;;;;;;;66.20;25.48;;;;;;;;;;4998596;28;20072;-82
2022/11/30 04:21:50;;;;;;;70.40;25.65;;;;;;;;;;5013261;28;20061;-80
2022/11/30 04:24:16;;;;;;;66.43;24.58;;;;;;;;;;5013821;28;20049;-79
2022/11/30 04:26:44;;;;;;;69.32;25.80;;;;;;;;;;4996153;28;20387;-78
2022/11/30 04:29:11;;;;;;;66.03;24.75;;;;;;;;;;5013017;28;20064;-81
2022/11/30 04:31:37;;;;;;;74.20;26.27;;;;;;;;;;4994897;28;20120;-80
2022/11/30 04:34:04;;;;;;;65.22;24.58;;;;;;;;;;4995049;28;20076;-81
2022/11/30 04:36:30;;;;;;;66.45;25.50;;;;;;;;;;4995634;28;20050;-82
2022/11/30 04:38:56;;;;;;;71.10;26.67;;;;;;;;;;5013627;28;20050;-80
2022/11/30 04:41:23;;;;;;;69.72;25.58;;;;;;;;;;5042616;28;20049;-79
2022/11/30 04:43:49;;;;;;;70.65;25.33;;;;;;;;;;5016294;28;20046;-80
2022/11/30 04:46:16;;;;;;;68.90;26.90;;;;;;;;;;5033088;28;20466;-78
2022/11/30 04:48:42;;;;;;;69.85;26.88;;;;;;;;;;5045233;28;20146;-81
2022/11/30 04:51:08;;;;;;;65.45;25.30;;;;;;;;;;5032521;28;20061;-79
2022/11/30 04:53:36;;;;;;;68.82;26.17;;;;;;;;;;5015546;28;20068;-82
2022/11/30 04:56:08;;;;;;;68.00;25.33;;;;;;;;;;5022066;28;20079;-76
2022/11/30 04:58:34;;;;;;;71.78;25.80;;;;;;;;;;5019614;28;20060;-80
2022/11/30 05:01:00;;;;;;;72.80;26.38;;;;;;;;;;5033376;28;20077;-81
2022/11/30 05:03:27;;;;;;;68.07;25.60;;;;;;;;;;5034972;28;20056;-81
2022/11/30 05:05:54;;;;;;;67.63;25.08;;;;;;;;;;5015596;28;20049;-82
2022/11/30 05:08:21;;;;;;;68.35;25.40;;;;;;;;;;5036029;28;20053;-81
2022/11/30 05:10:50;;;;;;;66.30;25.63;;;;;;;;;;5037964;28;20053;-80
2022/11/30 05:13:18;;;;;;;66.57;25.70;;;;;;;;;;5019978;28;20077;-79
2022/11/30 05:15:45;;;;;;;71.80;26.02;;;;;;;;;;5017761;28;20127;-80
2022/11/30 05:18:14;;;;;;;67.88;25.58;;;;;;;;;;5032797;28;20053;-81
2022/11/30 05:20:40;;;;;;;66.68;24.92;;;;;;;;;;5014822;28;20096;-82
2022/11/30 05:23:07;;;;;;;66.97;24.95;;;;;;;;;;5032321;28;20133;-82
2022/11/30 05:25:33;;;;;;;70.70;26.73;;;;;;;;;;5031875;28;20053;-81
2022/11/30 05:27:59;;;;;;;73.00;25.75;;;;;;;;;;5015122;28;20076;-81
2022/11/30 05:30:27;;;;;;;65.78;25.48;;;;;;;;;;5032418;28;20576;-80
2022/11/30 05:32:53;;;;;;;71.65;26.83;;;;;;;;;;5032719;28;20491;-82
2022/11/30 05:35:20;;;;;;;64.57;24.77;;;;;;;;;;5047075;28;21690;-81
2022/11/30 05:37:46;;;;;;;68.10;26.20;;;;;;;;;;5033000;28;20109;-80
2022/11/30 05:40:13;;;;;;;63.42;25.45;;;;;;;;;;5020507;28;20045;-79
2022/11/30 05:42:39;;;;;;;69.70;26.10;;;;;;;;;;5020288;28;20045;-81
2022/11/30 05:45:06;;;;;;;65.60;25.98;;;;;;;;;;5019101;28;20042;-80
2022/11/30 05:47:32;;;;;;;68.38;26.27;;;;;;;;;;5037846;28;20060;-80
2022/11/30 05:49:59;;;;;;;72.18;25.55;;;;;;;;;;5036545;28;20045;-80
2022/11/30 05:52:25;;;;;;;69.78;26.63;;;;;;;;;;5044257;28;20113;-79
2022/11/30 05:54:51;;;;;;;68.20;26.17;;;;;;;;;;5029136;28;20065;-78
2022/11/30 05:57:18;;;;;;;71.78;26.85;;;;;;;;;;5047445;28;20050;-81
2022/11/30 05:59:44;;;;;;;68.93;25.48;;;;;;;;;;5036308;28;20116;-81
2022/11/30 06:02:10;;;;;;;66.78;25.70;;;;;;;;;;5036212;28;20425;-80
2022/11/30 06:04:37;;;;;;;64.68;25.45;;;;;;;;;;5026404;28;20050;-81
2022/11/30 06:07:04;;;;;;;64.88;25.27;;;;;;;;;;5037801;28;20158;-81
2022/11/30 06:09:30;;;;;;;69.75;26.33;;;;;;;;;;5016681;28;20053;-81
2022/11/30 06:11:56;;;;;;;67.95;26.38;;;;;;;;;;5033976;28;20053;-79
2022/11/30 06:14:23;;;;;;;71.80;25.80;;;;;;;;;;5034234;28;20050;-81
2022/11/30 06:16:50;;;;;;;72.47;26.08;;;;;;;;;;5046433;28;20048;-78
2022/11/30 06:19:16;;;;;;;65.82;25.63;;;;;;;;;;5036488;28;20045;-80
2022/11/30 06:21:42;;;;;;;66.78;25.35;;;;;;;;;;5017062;28;20062;-81
2022/11/30 06:24:09;;;;;;;69.32;25.90;;;;;;;;;;5017603;28;20050;-78
2022/11/30 06:26:35;;;;;;;62.45;25.33;;;;;;;;;;5042109;28;20056;-81
2022/11/30 06:29:02;;;;;;;65.43;26.73;;;;;;;;;;5035381;28;20053;-81
2022/11/30 06:31:29;;;;;;;71.68;26.92;;;;;;;;;;5032931;28;20049;-80
2022/11/30 06:33:58;;;;;;;65.40;25.30;;;;;;;;;;5033306;28;20042;-80
2022/11/30 06:36:24;;;;;;;65.63;25.98;;;;;;;;;;5033506;28;20054;-80
2022/11/30 06:38:57;;;;;;;67.53;25.00;;;;;;;;;;5033892;28;20132;-80
2022/11/30 06:41:25;;;;;;;65.70;25.33;;;;;;;;;;5016994;28;20896;-84
2022/11/30 06:43:51;;;;;;;65.55;25.83;;;;;;;;;;5016528;28;20050;-83
2022/11/30 06:46:17;;;;;;;76.85;26.13;;;;;;;;;;5017147;28;20060;-81
2022/11/30 06:48:46;;;;;;;69.40;26.75;;;;;;;;;;5032824;28;20045;-80
2022/11/30 06:51:14;;;;;;;65.38;25.33;;;;;;;;;;5032403;28;20509;-78
2022/11/30 06:53:41;;;;;;;65.20;24.45;;;;;;;;;;5029831;28;20068;-81
2022/11/30 06:56:08;;;;;;;67.72;25.40;;;;;;;;;;5033913;28;20068;-77
2022/11/30 06:58:36;;;;;;;68.63;24.67;;;;;;;;;;5028357;28;20060;-81
2022/11/30 07:01:04;;;;;;;63.95;25.02;;;;;;;;;;4995321;28;20045;-80
2022/11/30 07:03:30;;;;;;;64.60;23.85;;;;;;;;;;4997086;28;20142;-82
2022/11/30 07:05:57;;;;;;;63.38;25.52;;;;;;;;;;5026622;28;20049;-80
2022/11/30 07:08:23;;;;;;;65.15;25.15;;;;;;;;;;5032269;28;20628;-82
2022/11/30 07:10:50;;;;;;;63.95;24.30;;;;;;;;;;5015011;28;20045;-80
2022/11/30 07:13:17;;;;;;;55.90;22.80;;;;;;;;;;5032750;28;20045;-81
2022/11/30 07:15:44;;;;;;;57.33;23.73;;;;;;;;;;5033242;28;20061;-80
2022/11/30 07:18:10;;;;;;;58.35;23.02;;;;;;;;;;5033001;28;20056;-80
2022/11/30 07:20:37;;;;;;;64.32;24.30;;;;;;;;;;5033093;28;20082;-79
2022/11/30 07:26:11;;;;;;;59.75;23.75;;;;;;;;;;5032215;28;20049;-81
2022/11/30 07:28:38;;;;;;;60.78;22.85;;;;;;;;;;5033460;28;20049;-80
2022/11/30 07:31:18;;;;;;;61.83;23.20;;;;;;;;;;5033708;28;20521;-81
2022/11/30 07:33:45;;;;;;;62.38;23.75;;;;;;;;;;5034163;28;20132;-80
2022/11/30 07:36:11;;;;;;;63.40;23.42;;;;;;;;;;5038179;28;20060;-77
2022/11/30 07:38:38;;;;;;;62.50;23.35;;;;;;;;;;5029302;28;20053;-79
2022/11/30 07:41:04;;;;;;;61.25;23.83;;;;;;;;;;5038579;28;20493;-81
2022/11/30 07:43:31;;;;;;;62.50;23.70;;;;;;;;;;5037570;28;20057;-81
2022/11/30 07:45:58;;;;;;;66.47;24.27;;;;;;;;;;5037518;28;20045;-80
2022/11/30 07:48:25;;;;;;;61.17;23.10;;;;;;;;;;5023560;28;20042;-79
2022/11/30 07:50:51;;;;;;;60.08;23.48;;;;;;;;;;5023795;28;20042;-78
2022/11/30 07:53:18;;;;;;;60.58;22.67;;;;;;;;;;5023816;28;20053;-78
2022/11/30 07:55:45;;;;;;;58.72;23.63;;;;;;;;;;5041046;28;20388;-78
2022/11/30 07:58:11;;;;;;;64.05;24.52;;;;;;;;;;5004032;28;20061;-78
2022/11/30 08:00:42;;;;;;;59.00;22.40;;;;;;;;;;5022021;28;20107;-77
2022/11/30 08:03:09;;;;;;;59.28;23.40;;;;;;;;;;5039645;28;20203;-78
2022/11/30 08:05:35;;;;;;;58.97;24.02;;;;;;;;;;5020826;28;20099;-81
2022/11/30 08:08:02;;;;;;;59.70;22.60;;;;;;;;;;5016884;28;20045;-82
2022/11/30 08:10:28;;;;;;;59.65;23.50;;;;;;;;;;5040664;28;20053;-77
2022/11/30 08:12:55;;;;;;;60.25;23.08;;;;;;;;;;5022379;28;20057;-78
2022/11/30 08:15:21;;;;;;;59.95;24.17;;;;;;;;;;5017890;28;20051;-82
2022/11/30 08:17:59;;;;;;;62.47;23.00;;;;;;;;;;5044623;28;20497;-78
2022/11/30 08:20:25;;;;;;;64.20;24.45;;;;;;;;;;5032039;28;20054;-78
2022/11/30 08:22:51;;;;;;;55.38;22.55;;;;;;;;;;5032292;28;20076;-80
2022/11/30 08:25:18;;;;;;;62.85;24.55;;;;;;;;;;5016949;28;20588;-79
2022/11/30 08:27:44;;;;;;;65.78;25.83;;;;;;;;;;5033450;28;20052;-82
2022/11/30 08:30:10;;;;;;;76.45;29.42;;;;;;;;;;5015126;28;20411;-80
2022/11/30 08:32:39;;;;;;;70.00;26.27;;;;;;;;;;5032199;28;20061;-81
2022/11/30 08:35:06;;;;;;;61.47;25.92;;;;;;;;;;5015930;28;20053;-79
2022/11/30 08:37:34;;;;;;;55.03;22.58;;;;;;;;;;5015034;28;20057;-81
2022/11/30 08:40:01;;;;;;;52.25;22.05;;;;;;;;;;5015775;28;20060;-83
2022/11/30 08:42:27;;;;;;;53.05;21.02;;;;;;;;;;5032399;28;20049;-82
2022/11/30 08:44:53;;;;;;;87.50;29.75;;;;;;;;;;5031377;28;20045;-82
2022/11/30 08:47:20;;;;;;;93.25;30.88;;;;;;;;;;5012750;28;20637;-78
2022/11/30 08:49:46;;;;;;;92.18;30.25;;;;;;;;;;5013113;28;20180;-82
2022/11/30 08:52:13;;;;;;;105.25;33.42;;;;;;;;;;5013466;28;20053;-78
2022/11/30 08:54:44;;;;;;;70.53;26.45;;;;;;;;;;5033380;28;20076;-83
2022/11/30 08:57:11;;;;;;;115.57;37.10;;;;;;;;;;5044152;28;20044;-77
2022/11/30 08:59:38;;;;;;;82.57;29.55;;;;;;;;;;5043209;28;20057;-77
2022/11/30 09:02:05;;;;;;;59.72;25.92;;;;;;;;;;5033386;28;20109;-78
2022/11/30 09:04:32;;;;;;;47.55;20.40;;;;;;;;;;5025374;28;20046;-82
2022/11/30 09:06:59;;;;;;;45.33;19.63;;;;;;;;;;5015092;28;20046;-82
2022/11/30 09:09:26;;;;;;;48.08;21.77;;;;;;;;;;5032153;28;20054;-83
2022/11/30 09:11:52;;;;;;;47.22;21.02;;;;;;;;;;5015729;28;20049;-81
2022/11/30 09:14:19;;;;;;;43.85;20.25;;;;;;;;;;5015771;28;20084;-83
2022/11/30 09:16:45;;;;;;;48.83;21.52;;;;;;;;;;5015624;28;20057;-83
2022/11/30 09:19:11;;;;;;;44.85;21.23;;;;;;;;;;5032685;28;20140;-80
2022/11/30 09:21:39;;;;;;;41.78;19.35;;;;;;;;;;5035868;28;20064;-82
2022/11/30 09:24:05;;;;;;;45.20;19.83;;;;;;;;;;5017454;28;20046;-84
2022/11/30 09:26:31;;;;;;;41.42;19.70;;;;;;;;;;5016640;28;20054;-82
2022/11/30 09:28:58;;;;;;;46.17;20.17;;;;;;;;;;5032325;28;20041;-81
2022/11/30 09:31:25;;;;;;;44.08;19.92;;;;;;;;;;5012369;28;20112;-82
2022/11/30 09:33:53;;;;;;;44.85;20.38;;;;;;;;;;5032215;28;20045;-82
2022/11/30 09:36:20;;;;;;;42.75;19.92;;;;;;;;;;5014553;28;20092;-82
2022/11/30 09:38:47;;;;;;;44.15;19.13;;;;;;;;;;5013566;28;20053;-81
2022/11/30 09:41:20;;;;;;;46.53;19.83;;;;;;;;;;5023667;28;20054;-83
2022/11/30 09:44:00;;;;;;;42.50;19.67;;;;;;;;;;5026196;28;20056;-79
2022/11/30 09:46:29;;;;;;;43.25;18.33;;;;;;;;;;5002397;28;20058;-83
2022/11/30 09:49:01;;;;;;;42.63;20.08;;;;;;;;;;4994628;28;20081;-81
2022/11/30 09:51:37;;;;;;;41.88;18.70;;;;;;;;;;4993965;28;20050;-81
2022/11/30 09:54:09;;;;;;;38.58;18.40;;;;;;;;;;4994538;28;20052;-81
2022/11/30 09:56:37;;;;;;;35.20;17.25;;;;;;;;;;5011455;28;20052;-82
2022/11/30 09:59:07;;;;;;;34.30;16.23;;;;;;;;;;5011691;28;20521;-83
2022/11/30 10:01:33;;;;;;;28.02;15.18;;;;;;;;;;4993896;28;20054;-78
2022/11/30 10:04:03;;;;;;;28.33;14.63;;;;;;;;;;5011283;28;20045;-82
2022/11/30 10:06:36;;;;;;;27.05;14.85;;;;;;;;;;5010317;28;20054;-82
2022/11/30 10:09:02;;;;;;;24.42;14.30;;;;;;;;;;5010594;28;20050;-81
2022/11/30 10:11:29;;;;;;;23.45;13.20;;;;;;;;;;4992684;28;20527;-82
2022/11/30 10:14:14;;;;;;;25.52;14.48;;;;;;;;;;4993981;28;20140;-82
2022/11/30 10:16:49;;;;;;;23.08;13.40;;;;;;;;;;5012291;28;20065;-82
2022/11/30 10:19:35;;;;;;;21.45;13.68;;;;;;;;;;5011094;28;20514;-82
2022/11/30 10:22:04;;;;;;;23.47;13.13;;;;;;;;;;5008046;28;20060;-81
2022/11/30 10:24:30;;;;;;;25.45;14.30;;;;;;;;;;5013540;28;20473;-81
2022/11/30 10:26:57;;;;;;;26.08;12.90;;;;;;;;;;4997201;28;20049;-80
2022/11/30 10:29:27;;;;;;;24.67;12.85;;;;;;;;;;4997097;28;20053;-81
2022/11/30 10:31:56;;;;;;;21.98;12.85;;;;;;;;;;4996984;28;20156;-81
2022/11/30 10:34:28;;;;;;;22.13;12.93;;;;;;;;;;4997007;28;20597;-82
2022/11/30 10:37:01;;;;;;;20.55;12.52;;;;;;;;;;5014107;28;20046;-80
2022/11/30 10:39:39;;;;;;;21.60;12.82;;;;;;;;;;5017139;28;20508;-81
2022/11/30 10:42:16;;;;;;;25.02;13.85;;;;;;;;;;5033006;28;20064;-80
2022/11/30 10:44:46;;;;;;;21.42;12.15;;;;;;;;;;5014675;28;20616;-80
2022/11/30 10:47:20;;;;;;;21.35;11.43;;;;;;;;;;5032723;28;20141;-79
2022/11/30 10:49:48;;;;;;;19.55;11.80;;;;;;;;;;5033226;28;20088;-80
2022/11/30 10:52:21;;;;;;;21.52;11.55;;;;;;;;;;5014905;28;20049;-81
2022/11/30 10:54:49;;;;;;;24.30;12.10;;;;;;;;;;5015626;28;20053;-80
2022/11/30 10:57:15;;;;;;;22.90;11.95;;;;;;;;;;5032034;28;20065;-80
2022/11/30 10:59:46;;;;;;;24.85;12.02;;;;;;;;;;5032854;28;20056;-81
2022/11/30 11:02:32;;;;;;;20.90;11.68;;;;;;;;;;5014832;28;20045;-78
2022/11/30 11:05:08;;;;;;;21.98;11.77;;;;;;;;;;5017541;28;20556;-80
2022/11/30 11:07:43;;;;;;;24.25;11.95;;;;;;;;;;5032085;28;20049;-81
2022/11/30 11:10:09;;;;;;;;;;;;;;;;;;5033438;28;20060;-80
2022/11/30 11:12:36;;;;;;;19.70;10.65;;;;;;;;;;5033052;28;19932;-82
2022/11/30 11:15:15;;;;;;;19.95;10.98;;;;;;;;;;5013890;28;20251;-81
2022/11/30 11:17:42;;;;;;;22.45;11.40;;;;;;;;;;5032356;28;20053;-79
2022/11/30 11:20:28;;;;;;;21.02;11.48;;;;;;;;;;5031928;28;20526;-81
2022/11/30 11:22:54;;;;;;;20.73;11.57;;;;;;;;;;5032345;28;20060;-80
2022/11/30 11:25:24;;;;;;;19.80;10.15;;;;;;;;;;5013950;28;20050;-81
2022/11/30 11:27:56;;;;;;;18.17;9.95;;;;;;;;;;5014362;28;20042;-80
2022/11/30 11:30:26;;;;;;;18.83;9.80;;;;;;;;;;5014231;28;20049;-82
2022/11/30 11:33:22;;;;;;;18.13;9.68;;;;;;;;;;5014437;28;20057;-83
2022/11/30 11:35:50;;;;;;;15.90;9.35;;;;;;;;;;4998001;28;20050;-83
2022/11/30 11:38:22;;;;;;;14.57;9.30;;;;;;;;;;5014545;28;20053;-81
2022/11/30 11:41:02;;;;;;;14.85;9.55;;;;;;;;;;5011268;28;20049;-81
2022/11/30 11:43:29;;;;;;;16.17;9.93;;;;;;;;;;4995506;28;20049;-82
2022/11/30 11:46:10;;;;;;;15.63;9.82;;;;;;;;;;5012376;28;20046;-83
2022/11/30 11:48:44;;;;;;;16.40;10.00;;;;;;;;;;4995609;28;20149;-81
2022/11/30 11:51:10;;;;;;;13.98;9.10;;;;;;;;;;5023595;28;20046;-80
2022/11/30 11:53:40;;;;;;;14.25;9.57;;;;;;;;;;5024640;28;20049;-80
2022/11/30 11:56:19;;;;;;;15.00;9.55;;;;;;;;;;5025185;28;20046;-79
2022/11/30 11:58:52;;;;;;;14.27;9.15;;;;;;;;;;5004791;28;20046;-81
2022/11/30 12:01:22;;;;;;;16.48;10.07;;;;;;;;;;5005726;28;20056;-81
2022/11/30 12:04:06;;;;;;;13.68;9.45;;;;;;;;;;5019600;28;20053;-82
2022/11/30 12:06:33;;;;;;;13.77;8.63;;;;;;;;;;5023607;28;20050;-82
2022/11/30 12:09:03;;;;;;;13.18;7.88;;;;;;;;;;5014631;28;20511;-80
2022/11/30 12:11:36;;;;;;;13.98;8.88;;;;;;;;;;4995730;28;20061;-82
2022/11/30 12:14:08;;;;;;;13.40;8.88;;;;;;;;;;4996786;28;20046;-81
2022/11/30 12:16:35;;;;;;;13.00;9.20;;;;;;;;;;5006867;28;20458;-80
2022/11/30 12:19:08;;;;;;;13.90;9.07;;;;;;;;;;5013115;28;20042;-80
2022/11/30 12:21:53;;;;;;;13.45;8.75;;;;;;;;;;5029818;28;20053;-80
2022/11/30 12:24:26;;;;;;;13.25;9.25;;;;;;;;;;5000298;28;20058;-82
2022/11/30 12:26:57;;;;;;;13.27;8.63;;;;;;;;;;5013322;28;20414;-81
2022/11/30 12:29:34;;;;;;;14.80;8.80;;;;;;;;;;5012917;28;20046;-84
2022/11/30 12:32:02;;;;;;;13.13;8.45;;;;;;;;;;5013281;28;20510;-80
2022/11/30 12:34:41;;;;;;;17.13;10.10;;;;;;;;;;5012695;28;20053;-82
2022/11/30 12:37:29;;;;;;;18.25;10.05;;;;;;;;;;5012219;28;20172;-82
2022/11/30 12:40:14;;;;;;;17.50;9.80;;;;;;;;;;5023718;28;20062;-80
2022/11/30 12:42:40;;;;;;;18.45;9.70;;;;;;;;;;5031206;28;20076;-82
2022/11/30 12:45:17;;;;;;;18.67;10.38;;;;;;;;;;5031110;28;20103;-82
2022/11/30 12:47:50;;;;;;;17.40;9.65;;;;;;;;;;5013786;28;20481;-81
2022/11/30 12:50:21;;;;;;;17.52;9.32;;;;;;;;;;5031014;28;20048;-82
2022/11/30 12:52:56;;;;;;;18.58;10.02;;;;;;;;;;5031474;28;20049;-82
2022/11/30 12:55:36;;;;;;;22.67;10.75;;;;;;;;;;5039658;28;20143;-80
2022/11/30 12:58:12;;;;;;;19.42;10.32;;;;;;;;;;5013640;28;20049;-81
2022/11/30 13:00:45;;;;;;;24.98;11.30;;;;;;;;;;5031291;28;20481;-81
2022/11/30 13:03:30;;;;;;;23.85;11.13;;;;;;;;;;5032412;28;20081;-81
2022/11/30 13:05:58;;;;;;;20.50;10.97;;;;;;;;;;5014029;28;20084;-82
2022/11/30 13:08:39;;;;;;;23.20;11.65;;;;;;;;;;5013762;28;20759;-82
2022/11/30 13:11:11;;;;;;;20.63;11.23;;;;;;;;;;5013070;28;20046;-81
2022/11/30 13:13:42;;;;;;;21.40;10.70;;;;;;;;;;5031024;28;20041;-82
2022/11/30 13:16:09;;;;;;;24.08;11.05;;;;;;;;;;5041551;28;20056;-80
2022/11/30 13:18:36;;;;;;;22.33;11.02;;;;;;;;;;5049318;28;20053;-79
2022/11/30 13:21:22;;;;;;;22.48;11.13;;;;;;;;;;5047953;28;20556;-81
2022/11/30 13:24:08;;;;;;;24.48;11.88;;;;;;;;;;5032564;28;20054;-82
2022/11/30 13:26:41;;;;;;;23.95;11.68;;;;;;;;;;5014355;28;20049;-83
2022/11/30 13:29:39;;;;;;;22.13;10.88;;;;;;;;;;5016331;28;20049;-79
2022/11/30 13:32:14;;;;;;;23.92;12.15;;;;;;;;;;5031032;28;20068;-79
2022/11/30 13:35:39;;;;;;;22.27;11.00;;;;;;;;;;5048162;28;20080;-79
2022/11/30 13:38:19;;;;;;;22.55;11.02;;;;;;;;;;4932619;29;20074;-81
2022/11/30 13:41:04;;;;;;;21.92;10.85;;;;;;;;;;4931234;29;20560;-82
2022/11/30 13:43:35;;;;;;;20.60;10.45;;;;;;;;;;5007279;28;20072;-81
2022/11/30 13:46:06;;;;;;;21.27;10.52;;;;;;;;;;5012841;28;20068;-81
2022/11/30 13:48:37;;;;;;;21.83;11.02;;;;;;;;;;5013342;28;20693;-80
2022/11/30 13:51:05;;;;;;;21.45;10.43;;;;;;;;;;5012631;28;20041;-81
2022/11/30 13:53:36;;;;;;;21.35;10.73;;;;;;;;;;5013559;28;20046;-81
2022/11/30 13:56:04;;;;;;;21.65;11.20;;;;;;;;;;5034497;28;20049;-81
2022/11/30 13:58:31;;;;;;;24.73;11.40;;;;;;;;;;5017762;28;20057;-83
2022/11/30 14:01:00;;;;;;;22.48;10.50;;;;;;;;;;5035185;28;20060;-83
2022/11/30 14:03:28;;;;;;;24.95;12.02;;;;;;;;;;5035238;28;20068;-82
2022/11/30 14:05:56;;;;;;;20.75;10.63;;;;;;;;;;5034782;28;20057;-82
2022/11/30 14:08:22;;;;;;;23.90;12.23;;;;;;;;;;5039529;28;20046;-80
2022/11/30 14:10:53;;;;;;;26.35;11.73;;;;;;;;;;5017816;28;20537;-83
2022/11/30 14:13:21;;;;;;;22.75;11.70;;;;;;;;;;5037923;28;20065;-82
2022/11/30 14:15:59;;;;;;;23.52;11.55;;;;;;;;;;5036170;28;20049;-80
2022/11/30 14:18:28;;;;;;;25.42;12.52;;;;;;;;;;5018705;28;20160;-81
2022/11/30 14:21:14;;;;;;;25.05;12.45;;;;;;;;;;5016897;28;20050;-83
2022/11/30 14:23:45;;;;;;;26.40;12.30;;;;;;;;;;5016551;28;20054;-80
2022/11/30 14:26:16;;;;;;;26.23;13.00;;;;;;;;;;5033066;28;20421;-80
2022/11/30 14:28:45;;;;;;;25.35;12.30;;;;;;;;;;5034640;28;20045;-83
2022/11/30 14:31:15;;;;;;;28.33;13.35;;;;;;;;;;5017451;28;20045;-83
2022/11/30 14:34:04;;;;;;;29.00;13.43;;;;;;;;;;5034981;28;20053;-83
2022/11/30 14:36:36;;;;;;;28.80;12.90;;;;;;;;;;5036692;28;20132;-82